sensor_id;sensor_type;location;lat;lon;timestamp;P1;durP1;ratioP1;P2;durP2;ratioP2
33190;SDS011;19554;42.652;23.364;2023-04-07T00:00:20;17.85;;;11.05;;
33190;SDS011;19554;42.652;23.364;2023-04-07T00:02:45;17.80;;;11.70;;
33190;SDS011;19554;42.652;23.364;2023-04-07T00:05:11;16.35;;;11.30;;
33190;SDS011;19554;42.652;23.364;2023-04-07T00:07:36;15.63;;;11.32;;
33190;SDS011;19554;42.652;23.364;2023-04-07T00:10:02;16.65;;;11.13;;
33190;SDS011;19554;42.652;23.364;2023-04-07T00:12:27;18.90;;;10.98;;
33190;SDS011;19554;42.652;23.364;2023-04-07T00:14:53;18.95;;;11.75;;
33190;SDS011;19554;42.652;23.364;2023-04-07T00:17:18;15.73;;;11.05;;
33190;SDS011;19554;42.652;23.364;2023-04-07T00:19:44;16.58;;;11.38;;
33190;SDS011;19554;42.652;23.364;2023-04-07T00:22:09;17.20;;;11.18;;
33190;SDS011;19554;42.652;23.364;2023-04-07T00:24:34;20.80;;;11.63;;
33190;SDS011;19554;42.652;23.364;2023-04-07T00:27:00;20.27;;;11.02;;
33190;SDS011;19554;42.652;23.364;2023-04-07T00:29:26;16.15;;;10.57;;
33190;SDS011;19554;42.652;23.364;2023-04-07T00:31:51;15.18;;;11.15;;
33190;SDS011;19554;42.652;23.364;2023-04-07T00:34:17;17.73;;;11.05;;
33190;SDS011;19554;42.652;23.364;2023-04-07T00:36:42;16.63;;;10.68;;
33190;SDS011;19554;42.652;23.364;2023-04-07T00:39:07;16.27;;;11.50;;
33190;SDS011;19554;42.652;23.364;2023-04-07T00:41:33;18.17;;;10.93;;
33190;SDS011;19554;42.652;23.364;2023-04-07T00:44:00;16.65;;;10.75;;
33190;SDS011;19554;42.652;23.364;2023-04-07T00:46:25;14.15;;;10.75;;
33190;SDS011;19554;42.652;23.364;2023-04-07T00:48:51;16.85;;;10.65;;
33190;SDS011;19554;42.652;23.364;2023-04-07T00:51:18;17.90;;;10.75;;
33190;SDS011;19554;42.652;23.364;2023-04-07T00:53:46;16.27;;;10.27;;
33190;SDS011;19554;42.652;23.364;2023-04-07T00:56:11;18.00;;;11.15;;
33190;SDS011;19554;42.652;23.364;2023-04-07T00:58:37;17.08;;;11.77;;
33190;SDS011;19554;42.652;23.364;2023-04-07T01:01:11;18.63;;;10.68;;
33190;SDS011;19554;42.652;23.364;2023-04-07T01:06:37;15.25;;;10.50;;
33190;SDS011;19554;42.652;23.364;2023-04-07T01:11:44;16.95;;;11.60;;
33190;SDS011;19554;42.652;23.364;2023-04-07T01:14:10;14.85;;;10.55;;
33190;SDS011;19554;42.652;23.364;2023-04-07T01:16:47;16.10;;;10.85;;
33190;SDS011;19554;42.652;23.364;2023-04-07T01:27:41;15.80;;;10.07;;
33190;SDS011;19554;42.652;23.364;2023-04-07T01:30:04;14.65;;;9.65;;
33190;SDS011;19554;42.652;23.364;2023-04-07T01:32:34;16.65;;;10.75;;
33190;SDS011;19554;42.652;23.364;2023-04-07T01:35:01;21.50;;;10.25;;
33190;SDS011;19554;42.652;23.364;2023-04-07T01:37:28;14.60;;;10.00;;
33190;SDS011;19554;42.652;23.364;2023-04-07T01:39:54;17.25;;;10.82;;
33190;SDS011;19554;42.652;23.364;2023-04-07T01:42:20;17.38;;;10.75;;
33190;SDS011;19554;42.652;23.364;2023-04-07T01:44:46;14.27;;;9.38;;
33190;SDS011;19554;42.652;23.364;2023-04-07T01:47:12;17.40;;;10.63;;
33190;SDS011;19554;42.652;23.364;2023-04-07T01:49:40;15.95;;;11.02;;
33190;SDS011;19554;42.652;23.364;2023-04-07T01:52:06;19.40;;;11.27;;
33190;SDS011;19554;42.652;23.364;2023-04-07T01:54:32;16.38;;;10.80;;
33190;SDS011;19554;42.652;23.364;2023-04-07T01:56:58;15.93;;;11.30;;
33190;SDS011;19554;42.652;23.364;2023-04-07T01:59:24;27.60;;;17.92;;
33190;SDS011;19554;42.652;23.364;2023-04-07T02:01:49;26.65;;;17.27;;
33190;SDS011;19554;42.652;23.364;2023-04-07T02:04:25;27.40;;;18.02;;
33190;SDS011;19554;42.652;23.364;2023-04-07T02:07:05;28.15;;;17.25;;
33190;SDS011;19554;42.652;23.364;2023-04-07T02:09:36;32.53;;;19.70;;
33190;SDS011;19554;42.652;23.364;2023-04-07T02:12:04;30.27;;;19.53;;
33190;SDS011;19554;42.652;23.364;2023-04-07T02:14:33;29.98;;;19.30;;
33190;SDS011;19554;42.652;23.364;2023-04-07T02:17:00;28.00;;;17.98;;
33190;SDS011;19554;42.652;23.364;2023-04-07T02:19:28;27.85;;;18.52;;
33190;SDS011;19554;42.652;23.364;2023-04-07T02:21:54;30.20;;;18.20;;
33190;SDS011;19554;42.652;23.364;2023-04-07T02:24:20;29.17;;;18.83;;
33190;SDS011;19554;42.652;23.364;2023-04-07T02:26:46;27.90;;;19.45;;
33190;SDS011;19554;42.652;23.364;2023-04-07T02:29:12;30.50;;;17.70;;
33190;SDS011;19554;42.652;23.364;2023-04-07T02:31:37;28.42;;;18.25;;
33190;SDS011;19554;42.652;23.364;2023-04-07T02:34:03;26.10;;;16.88;;
33190;SDS011;19554;42.652;23.364;2023-04-07T02:36:28;28.25;;;18.25;;
33190;SDS011;19554;42.652;23.364;2023-04-07T02:38:53;29.30;;;18.48;;
33190;SDS011;19554;42.652;23.364;2023-04-07T02:41:19;25.40;;;18.17;;
33190;SDS011;19554;42.652;23.364;2023-04-07T02:43:45;26.40;;;18.70;;
33190;SDS011;19554;42.652;23.364;2023-04-07T02:46:10;27.77;;;17.52;;
33190;SDS011;19554;42.652;23.364;2023-04-07T02:48:36;26.13;;;17.20;;
33190;SDS011;19554;42.652;23.364;2023-04-07T02:51:01;27.45;;;18.42;;
33190;SDS011;19554;42.652;23.364;2023-04-07T02:53:27;24.35;;;16.48;;
33190;SDS011;19554;42.652;23.364;2023-04-07T02:55:52;26.25;;;18.05;;
33190;SDS011;19554;42.652;23.364;2023-04-07T02:58:17;29.45;;;19.63;;
33190;SDS011;19554;42.652;23.364;2023-04-07T03:00:43;29.25;;;20.08;;
33190;SDS011;19554;42.652;23.364;2023-04-07T03:03:08;33.05;;;18.48;;
33190;SDS011;19554;42.652;23.364;2023-04-07T03:05:33;29.95;;;19.08;;
33190;SDS011;19554;42.652;23.364;2023-04-07T03:07:59;27.45;;;18.55;;
33190;SDS011;19554;42.652;23.364;2023-04-07T03:10:24;27.40;;;18.55;;
33190;SDS011;19554;42.652;23.364;2023-04-07T03:12:50;30.98;;;19.65;;
33190;SDS011;19554;42.652;23.364;2023-04-07T03:15:15;26.38;;;19.02;;
33190;SDS011;19554;42.652;23.364;2023-04-07T03:17:41;27.83;;;18.15;;
33190;SDS011;19554;42.652;23.364;2023-04-07T03:20:06;25.40;;;17.02;;
33190;SDS011;19554;42.652;23.364;2023-04-07T03:22:32;28.55;;;18.00;;
33190;SDS011;19554;42.652;23.364;2023-04-07T03:24:58;29.40;;;17.73;;
33190;SDS011;19554;42.652;23.364;2023-04-07T03:27:23;29.88;;;18.08;;
33190;SDS011;19554;42.652;23.364;2023-04-07T03:29:48;27.27;;;17.58;;
33190;SDS011;19554;42.652;23.364;2023-04-07T03:32:15;22.10;;;15.30;;
33190;SDS011;19554;42.652;23.364;2023-04-07T03:34:41;26.88;;;16.40;;
33190;SDS011;19554;42.652;23.364;2023-04-07T03:37:06;26.67;;;17.48;;
33190;SDS011;19554;42.652;23.364;2023-04-07T03:39:31;23.30;;;13.27;;
33190;SDS011;19554;42.652;23.364;2023-04-07T03:41:57;23.63;;;13.75;;
33190;SDS011;19554;42.652;23.364;2023-04-07T03:44:22;19.50;;;11.88;;
33190;SDS011;19554;42.652;23.364;2023-04-07T03:46:47;21.98;;;11.45;;
33190;SDS011;19554;42.652;23.364;2023-04-07T03:49:14;21.90;;;11.48;;
33190;SDS011;19554;42.652;23.364;2023-04-07T03:51:40;19.92;;;10.98;;
33190;SDS011;19554;42.652;23.364;2023-04-07T03:54:05;15.57;;;9.63;;
33190;SDS011;19554;42.652;23.364;2023-04-07T03:56:31;13.13;;;8.82;;
33190;SDS011;19554;42.652;23.364;2023-04-07T03:58:56;15.05;;;8.95;;
33190;SDS011;19554;42.652;23.364;2023-04-07T04:01:22;13.30;;;9.45;;
33190;SDS011;19554;42.652;23.364;2023-04-07T04:03:47;13.65;;;9.73;;
33190;SDS011;19554;42.652;23.364;2023-04-07T04:06:13;17.33;;;9.20;;
33190;SDS011;19554;42.652;23.364;2023-04-07T04:08:38;15.57;;;9.40;;
33190;SDS011;19554;42.652;23.364;2023-04-07T04:11:04;14.95;;;9.38;;
33190;SDS011;19554;42.652;23.364;2023-04-07T04:13:29;13.50;;;8.73;;
33190;SDS011;19554;42.652;23.364;2023-04-07T04:15:56;21.02;;;11.57;;
33190;SDS011;19554;42.652;23.364;2023-04-07T04:18:21;30.65;;;18.13;;
33190;SDS011;19554;42.652;23.364;2023-04-07T04:20:47;34.70;;;19.63;;
33190;SDS011;19554;42.652;23.364;2023-04-07T04:23:12;30.80;;;19.60;;
33190;SDS011;19554;42.652;23.364;2023-04-07T04:25:38;32.47;;;21.00;;
33190;SDS011;19554;42.652;23.364;2023-04-07T04:28:04;31.23;;;20.05;;
33190;SDS011;19554;42.652;23.364;2023-04-07T04:30:30;31.00;;;18.92;;
33190;SDS011;19554;42.652;23.364;2023-04-07T04:32:56;33.05;;;20.50;;
33190;SDS011;19554;42.652;23.364;2023-04-07T04:35:21;42.22;;;23.00;;
33190;SDS011;19554;42.652;23.364;2023-04-07T04:37:47;36.90;;;22.63;;
33190;SDS011;19554;42.652;23.364;2023-04-07T04:40:12;38.15;;;22.10;;
33190;SDS011;19554;42.652;23.364;2023-04-07T04:42:38;37.83;;;23.20;;
33190;SDS011;19554;42.652;23.364;2023-04-07T04:45:04;34.00;;;21.92;;
33190;SDS011;19554;42.652;23.364;2023-04-07T04:47:30;35.13;;;21.67;;
33190;SDS011;19554;42.652;23.364;2023-04-07T04:49:56;34.42;;;20.92;;
33190;SDS011;19554;42.652;23.364;2023-04-07T04:52:21;39.22;;;22.15;;
33190;SDS011;19554;42.652;23.364;2023-04-07T04:54:46;41.30;;;21.17;;
33190;SDS011;19554;42.652;23.364;2023-04-07T04:57:12;31.75;;;20.30;;
33190;SDS011;19554;42.652;23.364;2023-04-07T04:59:37;40.00;;;20.85;;
33190;SDS011;19554;42.652;23.364;2023-04-07T05:02:03;37.55;;;20.75;;
33190;SDS011;19554;42.652;23.364;2023-04-07T05:04:29;42.33;;;19.10;;
33190;SDS011;19554;42.652;23.364;2023-04-07T05:06:54;33.58;;;17.77;;
33190;SDS011;19554;42.652;23.364;2023-04-07T05:09:20;30.00;;;15.35;;
33190;SDS011;19554;42.652;23.364;2023-04-07T05:11:45;27.75;;;15.63;;
33190;SDS011;19554;42.652;23.364;2023-04-07T05:14:10;24.25;;;15.35;;
33190;SDS011;19554;42.652;23.364;2023-04-07T05:16:36;26.10;;;15.88;;
33190;SDS011;19554;42.652;23.364;2023-04-07T05:19:01;31.08;;;18.00;;
33190;SDS011;19554;42.652;23.364;2023-04-07T05:21:27;24.38;;;16.63;;
33190;SDS011;19554;42.652;23.364;2023-04-07T05:23:52;27.88;;;16.92;;
33190;SDS011;19554;42.652;23.364;2023-04-07T05:26:18;30.48;;;17.85;;
33190;SDS011;19554;42.652;23.364;2023-04-07T05:28:43;34.10;;;17.88;;
33190;SDS011;19554;42.652;23.364;2023-04-07T05:31:09;31.35;;;17.75;;
33190;SDS011;19554;42.652;23.364;2023-04-07T05:33:34;32.58;;;17.73;;
33190;SDS011;19554;42.652;23.364;2023-04-07T05:36:00;34.58;;;16.95;;
33190;SDS011;19554;42.652;23.364;2023-04-07T05:38:25;25.67;;;15.90;;
33190;SDS011;19554;42.652;23.364;2023-04-07T05:40:50;26.85;;;16.17;;
33190;SDS011;19554;42.652;23.364;2023-04-07T05:43:16;28.35;;;17.25;;
33190;SDS011;19554;42.652;23.364;2023-04-07T05:45:42;26.30;;;16.90;;
33190;SDS011;19554;42.652;23.364;2023-04-07T05:48:07;26.13;;;16.00;;
33190;SDS011;19554;42.652;23.364;2023-04-07T05:50:32;25.13;;;15.10;;
33190;SDS011;19554;42.652;23.364;2023-04-07T05:52:58;24.90;;;15.63;;
33190;SDS011;19554;42.652;23.364;2023-04-07T05:55:23;30.63;;;15.48;;
33190;SDS011;19554;42.652;23.364;2023-04-07T05:57:48;22.30;;;14.65;;
33190;SDS011;19554;42.652;23.364;2023-04-07T06:00:14;23.80;;;15.52;;
33190;SDS011;19554;42.652;23.364;2023-04-07T06:02:40;21.00;;;14.20;;
33190;SDS011;19554;42.652;23.364;2023-04-07T06:05:05;30.52;;;15.52;;
33190;SDS011;19554;42.652;23.364;2023-04-07T06:07:31;27.80;;;14.63;;
33190;SDS011;19554;42.652;23.364;2023-04-07T06:09:57;36.55;;;18.73;;
33190;SDS011;19554;42.652;23.364;2023-04-07T06:12:22;26.00;;;16.30;;
33190;SDS011;19554;42.652;23.364;2023-04-07T06:14:54;28.15;;;14.60;;
33190;SDS011;19554;42.652;23.364;2023-04-07T06:17:20;27.27;;;14.85;;
33190;SDS011;19554;42.652;23.364;2023-04-07T06:19:45;24.75;;;14.98;;
33190;SDS011;19554;42.652;23.364;2023-04-07T06:22:11;28.92;;;15.07;;
33190;SDS011;19554;42.652;23.364;2023-04-07T06:24:36;25.60;;;14.98;;
33190;SDS011;19554;42.652;23.364;2023-04-07T06:27:02;23.40;;;13.73;;
33190;SDS011;19554;42.652;23.364;2023-04-07T06:29:28;23.98;;;13.48;;
33190;SDS011;19554;42.652;23.364;2023-04-07T06:31:54;27.27;;;14.57;;
33190;SDS011;19554;42.652;23.364;2023-04-07T06:34:19;23.95;;;13.30;;
33190;SDS011;19554;42.652;23.364;2023-04-07T06:36:45;21.15;;;13.98;;
33190;SDS011;19554;42.652;23.364;2023-04-07T06:39:10;25.42;;;14.40;;
33190;SDS011;19554;42.652;23.364;2023-04-07T06:41:36;20.17;;;13.60;;
33190;SDS011;19554;42.652;23.364;2023-04-07T06:44:03;24.77;;;14.38;;
33190;SDS011;19554;42.652;23.364;2023-04-07T06:46:28;25.73;;;15.55;;
33190;SDS011;19554;42.652;23.364;2023-04-07T06:48:54;24.02;;;14.50;;
33190;SDS011;19554;42.652;23.364;2023-04-07T06:51:20;26.02;;;15.15;;
33190;SDS011;19554;42.652;23.364;2023-04-07T06:53:45;23.27;;;14.82;;
33190;SDS011;19554;42.652;23.364;2023-04-07T06:56:12;23.63;;;15.00;;
33190;SDS011;19554;42.652;23.364;2023-04-07T06:58:38;26.13;;;15.82;;
33190;SDS011;19554;42.652;23.364;2023-04-07T07:01:04;28.42;;;16.25;;
33190;SDS011;19554;42.652;23.364;2023-04-07T07:03:30;32.88;;;17.02;;
33190;SDS011;19554;42.652;23.364;2023-04-07T07:05:59;22.67;;;15.60;;
33190;SDS011;19554;42.652;23.364;2023-04-07T07:08:26;27.45;;;15.32;;
33190;SDS011;19554;42.652;23.364;2023-04-07T07:10:52;28.90;;;17.67;;
33190;SDS011;19554;42.652;23.364;2023-04-07T07:13:18;27.83;;;15.75;;
33190;SDS011;19554;42.652;23.364;2023-04-07T07:15:47;25.17;;;16.05;;
33190;SDS011;19554;42.652;23.364;2023-04-07T07:18:13;32.80;;;15.85;;
33190;SDS011;19554;42.652;23.364;2023-04-07T07:20:38;23.63;;;15.43;;
33190;SDS011;19554;42.652;23.364;2023-04-07T07:23:03;27.70;;;15.25;;
33190;SDS011;19554;42.652;23.364;2023-04-07T07:25:29;14.35;;;9.80;;
33190;SDS011;19554;42.652;23.364;2023-04-07T07:27:54;25.13;;;12.77;;
33190;SDS011;19554;42.652;23.364;2023-04-07T07:30:20;23.60;;;11.68;;
33190;SDS011;19554;42.652;23.364;2023-04-07T07:32:46;17.55;;;10.98;;
33190;SDS011;19554;42.652;23.364;2023-04-07T07:35:12;19.40;;;9.48;;
33190;SDS011;19554;42.652;23.364;2023-04-07T07:37:38;13.60;;;7.75;;
33190;SDS011;19554;42.652;23.364;2023-04-07T07:40:03;16.70;;;7.57;;
33190;SDS011;19554;42.652;23.364;2023-04-07T07:42:30;14.77;;;7.85;;
33190;SDS011;19554;42.652;23.364;2023-04-07T07:44:55;15.20;;;7.55;;
33190;SDS011;19554;42.652;23.364;2023-04-07T07:47:21;16.70;;;7.10;;
33190;SDS011;19554;42.652;23.364;2023-04-07T07:49:47;19.73;;;7.80;;
33190;SDS011;19554;42.652;23.364;2023-04-07T07:52:13;13.82;;;7.30;;
33190;SDS011;19554;42.652;23.364;2023-04-07T07:54:38;19.08;;;8.02;;
33190;SDS011;19554;42.652;23.364;2023-04-07T07:57:04;15.80;;;7.18;;
33190;SDS011;19554;42.652;23.364;2023-04-07T07:59:30;15.48;;;7.68;;
33190;SDS011;19554;42.652;23.364;2023-04-07T08:01:56;11.05;;;7.30;;
33190;SDS011;19554;42.652;23.364;2023-04-07T08:04:21;13.40;;;7.15;;
33190;SDS011;19554;42.652;23.364;2023-04-07T08:06:47;10.05;;;7.00;;
33190;SDS011;19554;42.652;23.364;2023-04-07T08:09:13;9.73;;;7.15;;
33190;SDS011;19554;42.652;23.364;2023-04-07T08:11:39;12.07;;;6.57;;
33190;SDS011;19554;42.652;23.364;2023-04-07T08:14:05;11.13;;;6.88;;
33190;SDS011;19554;42.652;23.364;2023-04-07T08:16:31;12.95;;;6.43;;
33190;SDS011;19554;42.652;23.364;2023-04-07T08:18:56;11.68;;;7.47;;
33190;SDS011;19554;42.652;23.364;2023-04-07T08:21:21;11.45;;;6.43;;
33190;SDS011;19554;42.652;23.364;2023-04-07T08:23:47;13.32;;;7.75;;
33190;SDS011;19554;42.652;23.364;2023-04-07T08:26:12;11.45;;;7.07;;
33190;SDS011;19554;42.652;23.364;2023-04-07T08:28:38;10.60;;;6.68;;
33190;SDS011;19554;42.652;23.364;2023-04-07T08:31:03;18.45;;;6.82;;
33190;SDS011;19554;42.652;23.364;2023-04-07T08:33:29;10.13;;;6.35;;
33190;SDS011;19554;42.652;23.364;2023-04-07T08:35:55;10.13;;;6.45;;
33190;SDS011;19554;42.652;23.364;2023-04-07T08:38:20;17.30;;;6.93;;
33190;SDS011;19554;42.652;23.364;2023-04-07T08:40:47;11.13;;;6.90;;
33190;SDS011;19554;42.652;23.364;2023-04-07T08:43:17;11.98;;;6.57;;
33190;SDS011;19554;42.652;23.364;2023-04-07T08:45:44;11.00;;;6.93;;
33190;SDS011;19554;42.652;23.364;2023-04-07T08:48:19;12.50;;;6.25;;
33190;SDS011;19554;42.652;23.364;2023-04-07T08:50:48;11.00;;;6.20;;
33190;SDS011;19554;42.652;23.364;2023-04-07T08:53:16;9.90;;;6.88;;
33190;SDS011;19554;42.652;23.364;2023-04-07T08:55:45;13.40;;;6.95;;
33190;SDS011;19554;42.652;23.364;2023-04-07T08:58:10;10.68;;;6.55;;
33190;SDS011;19554;42.652;23.364;2023-04-07T09:00:44;7.65;;;5.25;;
33190;SDS011;19554;42.652;23.364;2023-04-07T09:03:10;8.40;;;5.72;;
33190;SDS011;19554;42.652;23.364;2023-04-07T09:05:36;11.70;;;6.07;;
33190;SDS011;19554;42.652;23.364;2023-04-07T09:08:03;8.40;;;5.80;;
33190;SDS011;19554;42.652;23.364;2023-04-07T09:10:28;10.35;;;6.03;;
33190;SDS011;19554;42.652;23.364;2023-04-07T09:12:54;11.02;;;6.22;;
33190;SDS011;19554;42.652;23.364;2023-04-07T09:15:20;10.63;;;6.15;;
33190;SDS011;19554;42.652;23.364;2023-04-07T09:17:46;9.77;;;5.93;;
33190;SDS011;19554;42.652;23.364;2023-04-07T09:20:11;16.67;;;7.22;;
33190;SDS011;19554;42.652;23.364;2023-04-07T09:22:37;10.50;;;6.57;;
33190;SDS011;19554;42.652;23.364;2023-04-07T09:25:14;7.75;;;5.85;;
33190;SDS011;19554;42.652;23.364;2023-04-07T09:27:52;9.57;;;6.32;;
33190;SDS011;19554;42.652;23.364;2023-04-07T09:30:22;10.80;;;6.28;;
33190;SDS011;19554;42.652;23.364;2023-04-07T09:32:47;15.23;;;8.52;;
33190;SDS011;19554;42.652;23.364;2023-04-07T09:35:13;10.23;;;6.97;;
33190;SDS011;19554;42.652;23.364;2023-04-07T09:37:38;14.73;;;7.00;;
33190;SDS011;19554;42.652;23.364;2023-04-07T09:40:04;13.65;;;7.53;;
33190;SDS011;19554;42.652;23.364;2023-04-07T09:42:30;11.07;;;6.80;;
33190;SDS011;19554;42.652;23.364;2023-04-07T09:44:59;9.95;;;6.40;;
33190;SDS011;19554;42.652;23.364;2023-04-07T09:47:28;17.65;;;6.88;;
33190;SDS011;19554;42.652;23.364;2023-04-07T09:49:56;11.00;;;6.68;;
33190;SDS011;19554;42.652;23.364;2023-04-07T09:55:19;10.88;;;7.38;;
33190;SDS011;19554;42.652;23.364;2023-04-07T09:57:45;12.32;;;7.20;;
33190;SDS011;19554;42.652;23.364;2023-04-07T10:00:12;14.50;;;7.63;;
33190;SDS011;19554;42.652;23.364;2023-04-07T10:02:38;20.27;;;8.80;;
33190;SDS011;19554;42.652;23.364;2023-04-07T10:05:04;12.85;;;8.30;;
33190;SDS011;19554;42.652;23.364;2023-04-07T10:07:30;15.23;;;7.80;;
33190;SDS011;19554;42.652;23.364;2023-04-07T10:09:56;11.73;;;7.25;;
33190;SDS011;19554;42.652;23.364;2023-04-07T10:12:21;15.98;;;8.23;;
33190;SDS011;19554;42.652;23.364;2023-04-07T10:14:48;13.60;;;9.00;;
33190;SDS011;19554;42.652;23.364;2023-04-07T10:17:15;11.85;;;7.55;;
33190;SDS011;19554;42.652;23.364;2023-04-07T10:19:43;14.15;;;7.63;;
33190;SDS011;19554;42.652;23.364;2023-04-07T10:22:10;12.25;;;7.13;;
33190;SDS011;19554;42.652;23.364;2023-04-07T10:24:57;17.27;;;8.32;;
33190;SDS011;19554;42.652;23.364;2023-04-07T10:27:43;13.55;;;8.32;;
33190;SDS011;19554;42.652;23.364;2023-04-07T10:30:25;11.63;;;6.60;;
33190;SDS011;19554;42.652;23.364;2023-04-07T10:32:53;10.95;;;7.05;;
33190;SDS011;19554;42.652;23.364;2023-04-07T10:35:19;10.27;;;6.95;;
33190;SDS011;19554;42.652;23.364;2023-04-07T10:40:46;11.65;;;7.25;;
33190;SDS011;19554;42.652;23.364;2023-04-07T10:43:11;12.85;;;8.00;;
33190;SDS011;19554;42.652;23.364;2023-04-07T10:48:20;18.40;;;7.20;;
33190;SDS011;19554;42.652;23.364;2023-04-07T10:53:31;14.60;;;7.53;;
33190;SDS011;19554;42.652;23.364;2023-04-07T10:55:57;13.90;;;7.07;;
33190;SDS011;19554;42.652;23.364;2023-04-07T10:58:29;11.07;;;7.38;;
33190;SDS011;19554;42.652;23.364;2023-04-07T11:03:21;16.20;;;8.80;;
33190;SDS011;19554;42.652;23.364;2023-04-07T11:05:47;15.68;;;8.27;;
33190;SDS011;19554;42.652;23.364;2023-04-07T11:08:12;15.38;;;9.02;;
33190;SDS011;19554;42.652;23.364;2023-04-07T11:10:38;10.38;;;7.75;;
33190;SDS011;19554;42.652;23.364;2023-04-07T11:13:07;14.20;;;7.88;;
33190;SDS011;19554;42.652;23.364;2023-04-07T11:15:35;15.38;;;8.80;;
33190;SDS011;19554;42.652;23.364;2023-04-07T11:18:20;13.70;;;8.77;;
33190;SDS011;19554;42.652;23.364;2023-04-07T11:23:15;12.50;;;9.27;;
33190;SDS011;19554;42.652;23.364;2023-04-07T11:25:42;17.35;;;11.18;;
33190;SDS011;19554;42.652;23.364;2023-04-07T11:28:10;16.42;;;9.05;;
33190;SDS011;19554;42.652;23.364;2023-04-07T11:30:37;14.40;;;9.13;;
33190;SDS011;19554;42.652;23.364;2023-04-07T11:33:03;16.15;;;9.00;;
33190;SDS011;19554;42.652;23.364;2023-04-07T11:35:29;11.82;;;7.80;;
33190;SDS011;19554;42.652;23.364;2023-04-07T11:37:57;13.60;;;8.48;;
33190;SDS011;19554;42.652;23.364;2023-04-07T11:40:34;11.43;;;8.50;;
33190;SDS011;19554;42.652;23.364;2023-04-07T11:43:01;15.32;;;8.07;;
33190;SDS011;19554;42.652;23.364;2023-04-07T11:45:27;13.48;;;9.85;;
33190;SDS011;19554;42.652;23.364;2023-04-07T11:47:52;16.85;;;9.10;;
33190;SDS011;19554;42.652;23.364;2023-04-07T11:50:36;11.63;;;8.43;;
33190;SDS011;19554;42.652;23.364;2023-04-07T11:53:03;13.93;;;8.82;;
33190;SDS011;19554;42.652;23.364;2023-04-07T11:55:29;17.50;;;10.60;;
33190;SDS011;19554;42.652;23.364;2023-04-07T11:57:54;14.18;;;9.68;;
33190;SDS011;19554;42.652;23.364;2023-04-07T12:00:29;16.23;;;9.65;;
33190;SDS011;19554;42.652;23.364;2023-04-07T12:02:54;13.05;;;8.93;;
33190;SDS011;19554;42.652;23.364;2023-04-07T12:05:20;16.80;;;9.77;;
33190;SDS011;19554;42.652;23.364;2023-04-07T12:07:52;18.00;;;9.80;;
33190;SDS011;19554;42.652;23.364;2023-04-07T12:12:50;20.17;;;9.30;;
33190;SDS011;19554;42.652;23.364;2023-04-07T12:15:16;13.63;;;9.85;;
33190;SDS011;19554;42.652;23.364;2023-04-07T12:17:45;16.50;;;9.68;;
33190;SDS011;19554;42.652;23.364;2023-04-07T12:20:11;14.98;;;9.50;;
33190;SDS011;19554;42.652;23.364;2023-04-07T12:22:37;12.65;;;9.27;;
33190;SDS011;19554;42.652;23.364;2023-04-07T12:25:02;14.38;;;9.75;;
33190;SDS011;19554;42.652;23.364;2023-04-07T12:27:28;16.98;;;9.77;;
33190;SDS011;19554;42.652;23.364;2023-04-07T12:29:53;14.80;;;9.75;;
33190;SDS011;19554;42.652;23.364;2023-04-07T12:32:18;17.95;;;10.40;;
33190;SDS011;19554;42.652;23.364;2023-04-07T12:34:44;15.27;;;10.68;;
33190;SDS011;19554;42.652;23.364;2023-04-07T12:37:09;14.85;;;10.00;;
33190;SDS011;19554;42.652;23.364;2023-04-07T12:39:34;16.50;;;10.05;;
33190;SDS011;19554;42.652;23.364;2023-04-07T12:42:00;14.80;;;9.88;;
33190;SDS011;19554;42.652;23.364;2023-04-07T12:44:25;15.82;;;9.32;;
33190;SDS011;19554;42.652;23.364;2023-04-07T12:46:51;17.55;;;11.15;;
33190;SDS011;19554;42.652;23.364;2023-04-07T12:49:16;13.02;;;10.00;;
33190;SDS011;19554;42.652;23.364;2023-04-07T12:51:41;13.32;;;10.38;;
33190;SDS011;19554;42.652;23.364;2023-04-07T12:54:07;16.73;;;10.13;;
33190;SDS011;19554;42.652;23.364;2023-04-07T12:56:32;15.77;;;10.50;;
33190;SDS011;19554;42.652;23.364;2023-04-07T12:58:57;13.98;;;10.00;;
33190;SDS011;19554;42.652;23.364;2023-04-07T13:01:23;12.85;;;9.73;;
33190;SDS011;19554;42.652;23.364;2023-04-07T13:03:48;14.27;;;9.98;;
33190;SDS011;19554;42.652;23.364;2023-04-07T13:06:14;16.73;;;10.15;;
33190;SDS011;19554;42.652;23.364;2023-04-07T13:08:42;19.00;;;10.43;;
33190;SDS011;19554;42.652;23.364;2023-04-07T13:11:07;14.30;;;9.38;;
33190;SDS011;19554;42.652;23.364;2023-04-07T13:13:33;13.20;;;9.85;;
33190;SDS011;19554;42.652;23.364;2023-04-07T13:15:58;17.30;;;10.52;;
33190;SDS011;19554;42.652;23.364;2023-04-07T13:18:24;15.15;;;9.80;;
33190;SDS011;19554;42.652;23.364;2023-04-07T13:20:49;17.83;;;9.95;;
33190;SDS011;19554;42.652;23.364;2023-04-07T13:23:15;14.07;;;9.48;;
33190;SDS011;19554;42.652;23.364;2023-04-07T13:25:40;14.80;;;9.80;;
33190;SDS011;19554;42.652;23.364;2023-04-07T13:28:06;16.27;;;10.07;;
33190;SDS011;19554;42.652;23.364;2023-04-07T13:30:32;14.27;;;9.70;;
33190;SDS011;19554;42.652;23.364;2023-04-07T13:32:58;14.55;;;10.55;;
33190;SDS011;19554;42.652;23.364;2023-04-07T13:35:23;14.85;;;10.80;;
33190;SDS011;19554;42.652;23.364;2023-04-07T13:37:48;15.65;;;10.50;;
33190;SDS011;19554;42.652;23.364;2023-04-07T13:40:14;14.15;;;10.40;;
33190;SDS011;19554;42.652;23.364;2023-04-07T13:42:40;15.77;;;10.95;;
33190;SDS011;19554;42.652;23.364;2023-04-07T13:45:05;14.90;;;10.18;;
33190;SDS011;19554;42.652;23.364;2023-04-07T13:47:31;16.15;;;10.23;;
33190;SDS011;19554;42.652;23.364;2023-04-07T13:50:01;13.20;;;10.10;;
33190;SDS011;19554;42.652;23.364;2023-04-07T13:52:28;14.38;;;10.20;;
33190;SDS011;19554;42.652;23.364;2023-04-07T13:54:54;15.75;;;9.93;;
33190;SDS011;19554;42.652;23.364;2023-04-07T13:57:20;15.13;;;10.00;;
33190;SDS011;19554;42.652;23.364;2023-04-07T13:59:46;15.48;;;9.73;;
33190;SDS011;19554;42.652;23.364;2023-04-07T14:02:13;15.07;;;9.60;;
33190;SDS011;19554;42.652;23.364;2023-04-07T14:04:38;16.65;;;10.25;;
33190;SDS011;19554;42.652;23.364;2023-04-07T14:07:04;15.40;;;10.27;;
33190;SDS011;19554;42.652;23.364;2023-04-07T14:09:30;14.40;;;9.88;;
33190;SDS011;19554;42.652;23.364;2023-04-07T14:11:55;14.40;;;9.73;;
33190;SDS011;19554;42.652;23.364;2023-04-07T14:14:21;14.43;;;9.90;;
33190;SDS011;19554;42.652;23.364;2023-04-07T14:16:47;15.77;;;10.23;;
33190;SDS011;19554;42.652;23.364;2023-04-07T14:19:15;17.10;;;9.77;;
33190;SDS011;19554;42.652;23.364;2023-04-07T14:21:41;17.00;;;10.00;;
33190;SDS011;19554;42.652;23.364;2023-04-07T14:24:06;13.82;;;9.55;;
33190;SDS011;19554;42.652;23.364;2023-04-07T14:26:32;14.13;;;9.95;;
33190;SDS011;19554;42.652;23.364;2023-04-07T14:28:57;15.75;;;10.52;;
33190;SDS011;19554;42.652;23.364;2023-04-07T14:31:23;15.63;;;10.82;;
33190;SDS011;19554;42.652;23.364;2023-04-07T14:33:48;20.48;;;11.25;;
33190;SDS011;19554;42.652;23.364;2023-04-07T14:36:14;14.77;;;10.65;;
33190;SDS011;19554;42.652;23.364;2023-04-07T14:38:42;20.73;;;10.50;;
33190;SDS011;19554;42.652;23.364;2023-04-07T14:41:08;19.05;;;11.43;;